sensor_id;sensor_type;location;lat;lon;timestamp;pressure;altitude;pressure_sealevel;temperature;humidity
35248;BME280;21380;52.194;20.520;2024-01-30T00:01:22;102212.59;;;15.03;55.64
35248;BME280;21380;52.194;20.520;2024-01-30T00:03:49;102200.19;;;14.98;55.46
35248;BME280;21380;52.194;20.520;2024-01-30T00:06:19;102208.88;;;14.98;55.54
35248;BME280;21380;52.194;20.520;2024-01-30T00:08:49;102193.69;;;14.89;55.28
35248;BME280;21380;52.194;20.520;2024-01-30T00:11:16;102211.56;;;15.00;55.44
35248;BME280;21380;52.194;20.520;2024-01-30T00:13:41;102208.72;;;14.95;55.25
35248;BME280;21380;52.194;20.520;2024-01-30T00:16:07;102212.28;;;14.97;55.78
35248;BME280;21380;52.194;20.520;2024-01-30T00:18:35;102219.25;;;14.98;55.47
35248;BME280;21380;52.194;20.520;2024-01-30T00:21:01;102219.19;;;14.97;55.53
35248;BME280;21380;52.194;20.520;2024-01-30T00:23:27;102225.38;;;14.99;55.29
35248;BME280;21380;52.194;20.520;2024-01-30T00:25:53;102218.31;;;14.96;55.49
35248;BME280;21380;52.194;20.520;2024-01-30T00:28:19;102221.72;;;14.95;55.60
35248;BME280;21380;52.194;20.520;2024-01-30T00:30:45;102232.91;;;14.94;55.43
35248;BME280;21380;52.194;20.520;2024-01-30T00:33:11;102219.84;;;14.93;55.70
35248;BME280;21380;52.194;20.520;2024-01-30T00:35:36;102220.59;;;14.90;55.62
35248;BME280;21380;52.194;20.520;2024-01-30T00:38:02;102226.00;;;14.95;55.32
35248;BME280;21380;52.194;20.520;2024-01-30T00:40:28;102214.56;;;14.91;55.18
35248;BME280;21380;52.194;20.520;2024-01-30T00:42:54;102220.72;;;14.93;55.73
35248;BME280;21380;52.194;20.520;2024-01-30T00:45:20;102217.25;;;14.93;55.71
35248;BME280;21380;52.194;20.520;2024-01-30T00:47:46;102207.50;;;14.88;55.57
35248;BME280;21380;52.194;20.520;2024-01-30T00:50:12;102217.88;;;14.88;55.44
35248;BME280;21380;52.194;20.520;2024-01-30T00:52:38;102220.50;;;14.88;55.71
35248;BME280;21380;52.194;20.520;2024-01-30T00:55:06;102229.00;;;14.86;55.30
35248;BME280;21380;52.194;20.520;2024-01-30T00:57:32;102227.41;;;14.88;55.63
35248;BME280;21380;52.194;20.520;2024-01-30T00:59:57;102222.13;;;14.86;55.50
35248;BME280;21380;52.194;20.520;2024-01-30T01:02:23;102223.81;;;14.86;55.33
35248;BME280;21380;52.194;20.520;2024-01-30T01:04:49;102226.28;;;14.83;55.54
35248;BME280;21380;52.194;20.520;2024-01-30T01:07:16;102230.66;;;14.84;55.81
35248;BME280;21380;52.194;20.520;2024-01-30T01:09:41;102220.09;;;14.81;55.44
35248;BME280;21380;52.194;20.520;2024-01-30T01:12:07;102226.03;;;14.78;55.53
35248;BME280;21380;52.194;20.520;2024-01-30T01:14:33;102213.09;;;14.80;55.60
35248;BME280;21380;52.194;20.520;2024-01-30T01:16:59;102211.44;;;14.80;55.71
35248;BME280;21380;52.194;20.520;2024-01-30T01:19:25;102210.44;;;14.78;55.60
35248;BME280;21380;52.194;20.520;2024-01-30T01:21:51;102210.50;;;14.80;55.92
35248;BME280;21380;52.194;20.520;2024-01-30T01:24:17;102205.25;;;14.78;55.62
35248;BME280;21380;52.194;20.520;2024-01-30T01:26:43;102200.78;;;14.75;55.81
35248;BME280;21380;52.194;20.520;2024-01-30T01:29:09;102191.13;;;14.73;55.88
35248;BME280;21380;52.194;20.520;2024-01-30T01:31:38;102199.91;;;14.75;55.64
35248;BME280;21380;52.194;20.520;2024-01-30T01:34:11;102195.59;;;14.75;55.66
35248;BME280;21380;52.194;20.520;2024-01-30T01:36:38;102196.41;;;14.74;55.35
35248;BME280;21380;52.194;20.520;2024-01-30T01:39:04;102197.19;;;14.73;55.87
35248;BME280;21380;52.194;20.520;2024-01-30T01:41:31;102175.41;;;14.70;55.47
35248;BME280;21380;52.194;20.520;2024-01-30T01:43:57;102188.38;;;14.70;55.72
35248;BME280;21380;52.194;20.520;2024-01-30T01:46:26;102175.41;;;14.70;55.54
35248;BME280;21380;52.194;20.520;2024-01-30T01:48:52;102178.88;;;14.70;55.69
35248;BME280;21380;52.194;20.520;2024-01-30T01:51:19;102172.69;;;14.68;55.82
35248;BME280;21380;52.194;20.520;2024-01-30T01:53:45;102172.81;;;14.70;55.69
35248;BME280;21380;52.194;20.520;2024-01-30T01:56:11;102170.94;;;14.67;55.61
35248;BME280;21380;52.194;20.520;2024-01-30T01:58:37;102167.44;;;14.67;55.64
35248;BME280;21380;52.194;20.520;2024-01-30T02:01:04;102156.88;;;14.64;55.36
35248;BME280;21380;52.194;20.520;2024-01-30T02:03:30;102164.03;;;14.68;55.56
35248;BME280;21380;52.194;20.520;2024-01-30T02:05:57;102156.75;;;14.62;55.47
35248;BME280;21380;52.194;20.520;2024-01-30T02:08:25;102154.16;;;14.62;55.55
35248;BME280;21380;52.194;20.520;2024-01-30T02:10:52;102156.97;;;14.65;55.61
35248;BME280;21380;52.194;20.520;2024-01-30T02:13:18;102154.28;;;14.64;55.74
35248;BME280;21380;52.194;20.520;2024-01-30T02:15:49;102150.75;;;14.63;55.84
35248;BME280;21380;52.194;20.520;2024-01-30T02:18:14;102157.59;;;14.61;55.50
35248;BME280;21380;52.194;20.520;2024-01-30T02:20:41;102161.88;;;14.60;55.56
35248;BME280;21380;52.194;20.520;2024-01-30T02:23:09;102160.19;;;14.61;55.70
35248;BME280;21380;52.194;20.520;2024-01-30T02:25:42;102165.28;;;14.59;55.82
35248;BME280;21380;52.194;20.520;2024-01-30T02:28:12;102152.16;;;14.56;55.74
35248;BME280;21380;52.194;20.520;2024-01-30T02:30:39;102162.63;;;14.58;55.44
35248;BME280;21380;52.194;20.520;2024-01-30T02:33:05;102159.22;;;14.59;55.59
35248;BME280;21380;52.194;20.520;2024-01-30T02:35:31;102156.63;;;14.59;55.92
35248;BME280;21380;52.194;20.520;2024-01-30T02:37:57;102150.53;;;14.58;55.93
35248;BME280;21380;52.194;20.520;2024-01-30T02:40:23;102160.03;;;14.58;55.65
35248;BME280;21380;52.194;20.520;2024-01-30T02:42:49;102159.56;;;14.49;55.56
35248;BME280;21380;52.194;20.520;2024-01-30T02:45:15;102163.44;;;14.57;55.42
35248;BME280;21380;52.194;20.520;2024-01-30T02:47:41;102165.06;;;14.55;55.59
35248;BME280;21380;52.194;20.520;2024-01-30T02:50:08;102161.56;;;14.54;55.81
35248;BME280;21380;52.194;20.520;2024-01-30T02:52:34;102164.16;;;14.54;55.58
35248;BME280;21380;52.194;20.520;2024-01-30T02:55:00;102166.84;;;14.56;55.85
35248;BME280;21380;52.194;20.520;2024-01-30T02:57:26;102167.50;;;14.52;55.60
35248;BME280;21380;52.194;20.520;2024-01-30T02:59:52;102163.03;;;14.49;55.83
35248;BME280;21380;52.194;20.520;2024-01-30T03:02:18;102168.31;;;14.51;55.88
35248;BME280;21380;52.194;20.520;2024-01-30T03:04:45;102163.22;;;14.52;55.82
35248;BME280;21380;52.194;20.520;2024-01-30T03:07:11;102162.97;;;14.48;55.74
35248;BME280;21380;52.194;20.520;2024-01-30T03:09:37;102163.84;;;14.48;55.85
35248;BME280;21380;52.194;20.520;2024-01-30T03:12:03;102163.84;;;14.48;55.47
35248;BME280;21380;52.194;20.520;2024-01-30T03:14:31;102170.91;;;14.51;55.39
35248;BME280;21380;52.194;20.520;2024-01-30T03:16:57;102168.16;;;14.48;55.48
35248;BME280;21380;52.194;20.520;2024-01-30T03:19:23;102145.44;;;14.43;55.81
35248;BME280;21380;52.194;20.520;2024-01-30T03:21:50;102154.91;;;14.43;55.61
35248;BME280;21380;52.194;20.520;2024-01-30T03:24:17;102161.03;;;14.43;55.81
35248;BME280;21380;52.194;20.520;2024-01-30T03:26:43;102167.97;;;14.44;55.39
35248;BME280;21380;52.194;20.520;2024-01-30T03:29:09;102157.38;;;14.40;55.32
35248;BME280;21380;52.194;20.520;2024-01-30T03:31:35;102167.09;;;14.44;55.52
35248;BME280;21380;52.194;20.520;2024-01-30T03:34:01;102161.84;;;14.42;55.71
35248;BME280;21380;52.194;20.520;2024-01-30T03:36:27;102160.03;;;14.41;55.72
35248;BME280;21380;52.194;20.520;2024-01-30T03:38:53;102165.22;;;14.41;55.72
35248;BME280;21380;52.194;20.520;2024-01-30T03:41:19;102154.66;;;14.38;55.83
35248;BME280;21380;52.194;20.520;2024-01-30T03:43:46;102159.88;;;14.38;55.37
35248;BME280;21380;52.194;20.520;2024-01-30T03:46:12;102154.66;;;14.38;55.44
35248;BME280;21380;52.194;20.520;2024-01-30T03:48:38;102148.53;;;14.36;55.37
35248;BME280;21380;52.194;20.520;2024-01-30T03:51:04;102159.06;;;14.39;55.63
35248;BME280;21380;52.194;20.520;2024-01-30T03:53:31;102144.22;;;14.37;55.35
35248;BME280;21380;52.194;20.520;2024-01-30T03:55:56;102157.28;;;14.38;55.33
35248;BME280;21380;52.194;20.520;2024-01-30T03:58:22;102151.19;;;14.38;55.44
35248;BME280;21380;52.194;20.520;2024-01-30T04:00:48;102144.16;;;14.35;55.41
35248;BME280;21380;52.194;20.520;2024-01-30T04:03:14;102151.13;;;14.36;55.53
35248;BME280;21380;52.194;20.520;2024-01-30T04:05:41;102143.09;;;14.32;55.29
35248;BME280;21380;52.194;20.520;2024-01-30T04:08:08;102144.69;;;14.30;55.33
35248;BME280;21380;52.194;20.520;2024-01-30T04:10:34;102143.16;;;14.33;55.30
35248;BME280;21380;52.194;20.520;2024-01-30T04:13:00;102146.75;;;14.35;55.64
35248;BME280;21380;52.194;20.520;2024-01-30T04:15:26;102148.19;;;14.30;55.24
35248;BME280;21380;52.194;20.520;2024-01-30T04:17:52;102146.59;;;14.32;55.70
35248;BME280;21380;52.194;20.520;2024-01-30T04:20:18;102142.09;;;14.30;55.45
35248;BME280;21380;52.194;20.520;2024-01-30T04:22:45;102144.00;;;14.32;55.27
35248;BME280;21380;52.194;20.520;2024-01-30T04:25:12;102141.22;;;14.29;55.69
35248;BME280;21380;52.194;20.520;2024-01-30T04:27:38;102143.00;;;14.30;55.43
35248;BME280;21380;52.194;20.520;2024-01-30T04:30:04;102142.84;;;14.27;55.55
35248;BME280;21380;52.194;20.520;2024-01-30T04:32:31;102149.19;;;14.32;55.32
35248;BME280;21380;52.194;20.520;2024-01-30T04:34:57;102147.41;;;14.31;55.40
35248;BME280;21380;52.194;20.520;2024-01-30T04:37:23;102144.00;;;14.32;55.23
35248;BME280;21380;52.194;20.520;2024-01-30T04:39:49;102131.56;;;14.26;55.52
35248;BME280;21380;52.194;20.520;2024-01-30T04:42:15;102134.97;;;14.25;55.72
35248;BME280;21380;52.194;20.520;2024-01-30T04:44:40;102143.00;;;14.30;55.31
35248;BME280;21380;52.194;20.520;2024-01-30T04:47:07;102146.41;;;14.29;55.56
35248;BME280;21380;52.194;20.520;2024-01-30T04:49:34;102136.75;;;14.26;55.45
35248;BME280;21380;52.194;20.520;2024-01-30T04:52:01;102136.84;;;14.28;55.47
35248;BME280;21380;52.194;20.520;2024-01-30T04:54:26;102139.44;;;14.28;55.26
35248;BME280;21380;52.194;20.520;2024-01-30T04:56:52;102134.97;;;14.25;55.65
35248;BME280;21380;52.194;20.520;2024-01-30T04:59:18;102141.22;;;14.29;55.45
35248;BME280;21380;52.194;20.520;2024-01-30T05:01:44;102142.09;;;14.30;55.31
35248;BME280;21380;52.194;20.520;2024-01-30T05:04:10;102147.16;;;14.26;55.22
35248;BME280;21380;52.194;20.520;2024-01-30T05:06:37;102135.78;;;14.24;55.46
35248;BME280;21380;52.194;20.520;2024-01-30T05:09:03;102132.31;;;14.24;55.73
35248;BME280;21380;52.194;20.520;2024-01-30T05:11:39;102148.13;;;14.29;55.37
35248;BME280;21380;52.194;20.520;2024-01-30T05:14:06;102148.94;;;14.27;55.29
35248;BME280;21380;52.194;20.520;2024-01-30T05:16:33;102142.84;;;14.27;55.51
35248;BME280;21380;52.194;20.520;2024-01-30T05:18:59;102144.63;;;14.28;54.89
35248;BME280;21380;52.194;20.520;2024-01-30T05:21:25;102133.38;;;14.27;55.45
35248;BME280;21380;52.194;20.520;2024-01-30T05:23:51;102132.44;;;14.27;55.25
35248;BME280;21380;52.194;20.520;2024-01-30T05:26:17;102134.25;;;14.28;55.46
35248;BME280;21380;52.194;20.520;2024-01-30T05:28:43;102141.16;;;14.27;55.20
35248;BME280;21380;52.194;20.520;2024-01-30T05:31:13;102140.34;;;14.29;55.42
35248;BME280;21380;52.194;20.520;2024-01-30T05:33:40;102149.75;;;14.26;55.48
35248;BME280;21380;52.194;20.520;2024-01-30T05:36:06;102139.34;;;14.26;55.20
35248;BME280;21380;52.194;20.520;2024-01-30T05:38:32;102149.00;;;14.29;55.00
35248;BME280;21380;52.194;20.520;2024-01-30T05:40:58;102144.81;;;14.31;55.01
35248;BME280;21380;52.194;20.520;2024-01-30T05:43:24;102144.69;;;14.30;54.93
35248;BME280;21380;52.194;20.520;2024-01-30T05:45:51;102146.25;;;14.26;54.85
35248;BME280;21380;52.194;20.520;2024-01-30T05:48:18;102143.00;;;14.30;54.91
35248;BME280;21380;52.194;20.520;2024-01-30T05:50:44;102137.81;;;14.30;54.97
35248;BME280;21380;52.194;20.520;2024-01-30T05:53:11;102140.41;;;14.30;55.36
35248;BME280;21380;52.194;20.520;2024-01-30T05:55:36;102144.81;;;14.31;55.07
35248;BME280;21380;52.194;20.520;2024-01-30T05:58:02;102133.44;;;14.29;55.29
35248;BME280;21380;52.194;20.520;2024-01-30T06:00:29;102128.91;;;14.25;55.13
35248;BME280;21380;52.194;20.520;2024-01-30T06:02:55;102130.75;;;14.27;55.27
35248;BME280;21380;52.194;20.520;2024-01-30T06:05:21;102132.56;;;14.29;55.29
35248;BME280;21380;52.194;20.520;2024-01-30T06:07:47;102126.13;;;14.22;55.31
35248;BME280;21380;52.194;20.520;2024-01-30T06:10:13;102124.59;;;14.25;54.85
35248;BME280;21380;52.194;20.520;2024-01-30T06:12:39;102131.50;;;14.25;54.85
35248;BME280;21380;52.194;20.520;2024-01-30T06:15:05;102145.44;;;14.27;55.30
35248;BME280;21380;52.194;20.520;2024-01-30T06:17:32;102139.28;;;14.25;55.05
35248;BME280;21380;52.194;20.520;2024-01-30T06:19:58;102142.84;;;14.27;54.88
35248;BME280;21380;52.194;20.520;2024-01-30T06:22:25;102147.22;;;14.28;54.94
35248;BME280;21380;52.194;20.520;2024-01-30T06:24:50;102150.78;;;14.30;54.94
35248;BME280;21380;52.194;20.520;2024-01-30T06:27:17;102148.19;;;14.30;54.72
35248;BME280;21380;52.194;20.520;2024-01-30T06:29:43;102151.59;;;14.29;54.98
35248;BME280;21380;52.194;20.520;2024-01-30T06:32:09;102157.59;;;14.28;54.87
35248;BME280;21380;52.194;20.520;2024-01-30T06:34:35;102154.19;;;14.29;54.79
35248;BME280;21380;52.194;20.520;2024-01-30T06:37:02;102155.00;;;14.28;54.85
35248;BME280;21380;52.194;20.520;2024-01-30T06:39:28;102162.78;;;14.28;55.02
35248;BME280;21380;52.194;20.520;2024-01-30T06:41:54;102161.09;;;14.29;55.20
35248;BME280;21380;52.194;20.520;2024-01-30T06:44:19;102158.41;;;14.27;54.96
35248;BME280;21380;52.194;20.520;2024-01-30T06:46:45;102159.31;;;14.27;54.97
35248;BME280;21380;52.194;20.520;2024-01-30T06:49:11;102162.78;;;14.28;55.14
35248;BME280;21380;52.194;20.520;2024-01-30T06:51:37;102157.59;;;14.28;54.63
35248;BME280;21380;52.194;20.520;2024-01-30T06:54:03;102158.41;;;14.27;55.17
35248;BME280;21380;52.194;20.520;2024-01-30T06:56:29;102153.72;;;14.20;54.75
35248;BME280;21380;52.194;20.520;2024-01-30T06:58:55;102162.56;;;14.23;54.72
35248;BME280;21380;52.194;20.520;2024-01-30T07:01:30;102162.00;;;14.29;54.85
35248;BME280;21380;52.194;20.520;2024-01-30T07:03:57;102156.72;;;14.27;55.02
35248;BME280;21380;52.194;20.520;2024-01-30T07:06:23;102148.88;;;14.26;54.98
35248;BME280;21380;52.194;20.520;2024-01-30T07:08:49;102162.06;;;14.31;54.81
35248;BME280;21380;52.194;20.520;2024-01-30T07:11:21;102158.59;;;14.30;54.84
35248;BME280;21380;52.194;20.520;2024-01-30T07:13:48;102160.28;;;14.30;54.60
35248;BME280;21380;52.194;20.520;2024-01-30T07:16:15;102160.38;;;14.31;54.57
35248;BME280;21380;52.194;20.520;2024-01-30T07:18:41;102156.78;;;14.29;54.77
35248;BME280;21380;52.194;20.520;2024-01-30T07:21:07;102161.19;;;14.30;54.64
35248;BME280;21380;52.194;20.520;2024-01-30T07:23:33;102161.25;;;14.32;54.82
35248;BME280;21380;52.194;20.520;2024-01-30T07:26:03;102163.84;;;14.32;54.68
35248;BME280;21380;52.194;20.520;2024-01-30T07:28:29;102155.06;;;14.30;54.73
35248;BME280;21380;52.194;20.520;2024-01-30T07:30:55;102169.97;;;14.32;54.51
35248;BME280;21380;52.194;20.520;2024-01-30T07:33:21;102166.44;;;14.32;54.57
35248;BME280;21380;52.194;20.520;2024-01-30T07:35:47;102157.78;;;14.31;54.74
35248;BME280;21380;52.194;20.520;2024-01-30T07:38:13;102166.44;;;14.32;54.76
35248;BME280;21380;52.194;20.520;2024-01-30T07:40:39;102163.94;;;14.33;54.70
35248;BME280;21380;52.194;20.520;2024-01-30T07:43:05;102155.34;;;14.34;54.83
35248;BME280;21380;52.194;20.520;2024-01-30T07:45:31;102167.44;;;14.34;54.64
35248;BME280;21380;52.194;20.520;2024-01-30T07:47:59;102163.19;;;14.36;54.77
35248;BME280;21380;52.194;20.520;2024-01-30T07:50:26;102155.34;;;14.34;54.77
35248;BME280;21380;52.194;20.520;2024-01-30T07:52:52;102152.81;;;14.36;54.70
35248;BME280;21380;52.194;20.520;2024-01-30T07:55:21;102153.72;;;14.36;54.92
35248;BME280;21380;52.194;20.520;2024-01-30T07:57:51;102160.69;;;14.37;54.54
35248;BME280;21380;52.194;20.520;2024-01-30T08:00:18;102154.66;;;14.38;54.74
35248;BME280;21380;52.194;20.520;2024-01-30T08:02:45;102159.88;;;14.38;54.91
35248;BME280;21380;52.194;20.520;2024-01-30T08:05:12;102153.00;;;14.39;54.85
35248;BME280;21380;52.194;20.520;2024-01-30T08:07:39;102156.25;;;14.35;54.39
35248;BME280;21380;52.194;20.520;2024-01-30T08:10:06;102154.66;;;14.38;54.67
35248;BME280;21380;52.194;20.520;2024-01-30T08:12:32;102153.97;;;14.41;54.32
35248;BME280;21380;52.194;20.520;2024-01-30T08:14:58;102146.88;;;14.38;54.84
35248;BME280;21380;52.194;20.520;2024-01-30T08:17:24;102131.91;;;14.33;54.74
35248;BME280;21380;52.194;20.520;2024-01-30T08:19:50;102151.28;;;14.39;54.67
35248;BME280;21380;52.194;20.520;2024-01-30T08:22:16;102151.44;;;14.42;54.78
35248;BME280;21380;52.194;20.520;2024-01-30T08:24:42;102149.72;;;14.43;54.57
35248;BME280;21380;52.194;20.520;2024-01-30T08:27:08;102153.25;;;14.43;54.39
35248;BME280;21380;52.194;20.520;2024-01-30T08:29:35;102144.53;;;14.43;54.58
35248;BME280;21380;52.194;20.520;2024-01-30T08:32:01;102141.94;;;14.43;54.81
35248;BME280;21380;52.194;20.520;2024-01-30T08:34:28;102142.84;;;14.43;54.32
35248;BME280;21380;52.194;20.520;2024-01-30T08:36:54;102142.94;;;14.45;54.18
35248;BME280;21380;52.194;20.520;2024-01-30T08:39:20;102147.22;;;14.44;54.63
35248;BME280;21380;52.194;20.520;2024-01-30T08:41:45;102153.38;;;14.47;54.64
35248;BME280;21380;52.194;20.520;2024-01-30T08:44:12;102143.00;;;14.47;54.46
35248;BME280;21380;52.194;20.520;2024-01-30T08:46:37;102143.72;;;14.44;54.47
35248;BME280;21380;52.194;20.520;2024-01-30T08:49:03;102146.41;;;14.46;54.55
35248;BME280;21380;52.194;20.520;2024-01-30T08:51:33;102149.06;;;14.47;54.35
35248;BME280;21380;52.194;20.520;2024-01-30T08:54:00;102158.66;;;14.48;54.41
35248;BME280;21380;52.194;20.520;2024-01-30T08:56:25;102149.25;;;14.50;54.19
35248;BME280;21380;52.194;20.520;2024-01-30T08:58:52;102146.56;;;14.49;54.26
35248;BME280;21380;52.194;20.520;2024-01-30T09:01:17;102149.97;;;14.48;54.51
35248;BME280;21380;52.194;20.520;2024-01-30T09:03:44;102150.97;;;14.50;54.48
35248;BME280;21380;52.194;20.520;2024-01-30T09:06:12;102150.13;;;14.51;54.25
35248;BME280;21380;52.194;20.520;2024-01-30T09:08:39;102155.41;;;14.52;54.36
35248;BME280;21380;52.194;20.520;2024-01-30T09:11:16;102157.03;;;14.50;54.08
35248;BME280;21380;52.194;20.520;2024-01-30T09:13:43;102151.91;;;14.52;54.37
35248;BME280;21380;52.194;20.520;2024-01-30T09:16:09;102149.25;;;14.50;54.30
35248;BME280;21380;52.194;20.520;2024-01-30T09:18:35;102155.31;;;14.51;54.41
35248;BME280;21380;52.194;20.520;2024-01-30T09:21:01;102154.50;;;14.52;54.32
35248;BME280;21380;52.194;20.520;2024-01-30T09:23:27;102151.09;;;14.53;54.33
35248;BME280;21380;52.194;20.520;2024-01-30T09:25:53;102151.09;;;14.53;54.30
35248;BME280;21380;52.194;20.520;2024-01-30T09:28:20;102145.91;;;14.53;54.02
35248;BME280;21380;52.194;20.520;2024-01-30T09:30:45;102137.00;;;14.48;54.58
35248;BME280;21380;52.194;20.520;2024-01-30T09:33:12;102142.50;;;14.54;54.43
35248;BME280;21380;52.194;20.520;2024-01-30T09:35:38;102140.78;;;14.54;54.26
35248;BME280;21380;52.194;20.520;2024-01-30T09:38:04;102144.31;;;14.55;54.06
35248;BME280;21380;52.194;20.520;2024-01-30T09:40:30;102141.69;;;14.55;54.36
35248;BME280;21380;52.194;20.520;2024-01-30T09:42:56;102138.25;;;14.56;54.45
35248;BME280;21380;52.194;20.520;2024-01-30T09:45:26;102139.25;;;14.58;53.97
35248;BME280;21380;52.194;20.520;2024-01-30T09:47:52;102131.22;;;14.53;54.25
35248;BME280;21380;52.194;20.520;2024-01-30T09:50:19;102130.47;;;14.56;54.08
35248;BME280;21380;52.194;20.520;2024-01-30T09:52:46;102140.16;;;14.58;54.13
35248;BME280;21380;52.194;20.520;2024-01-30T09:55:13;102134.13;;;14.59;54.23
35248;BME280;21380;52.194;20.520;2024-01-30T09:57:41;102134.97;;;14.58;54.18
35248;BME280;21380;52.194;20.520;2024-01-30T10:00:07;102135.03;;;14.60;54.47
35248;BME280;21380;52.194;20.520;2024-01-30T10:02:35;102128.06;;;14.59;54.32
35248;BME280;21380;52.194;20.520;2024-01-30T10:05:02;102118.31;;;14.55;54.22
35248;BME280;21380;52.194;20.520;2024-01-30T10:07:28;102122.78;;;14.57;54.18
35248;BME280;21380;52.194;20.520;2024-01-30T10:09:55;102121.25;;;14.61;54.25
35248;BME280;21380;52.194;20.520;2024-01-30T10:12:23;102122.06;;;14.60;54.40
35248;BME280;21380;52.194;20.520;2024-01-30T10:14:49;102121.13;;;14.59;54.50
35248;BME280;21380;52.194;20.520;2024-01-30T10:17:15;102114.25;;;14.60;54.31
35248;BME280;21380;52.194;20.520;2024-01-30T10:19:41;102117.72;;;14.60;54.16
35248;BME280;21380;52.194;20.520;2024-01-30T10:22:08;102112.53;;;14.60;54.05
35248;BME280;21380;52.194;20.520;2024-01-30T10:24:34;102109.19;;;14.63;54.39
35248;BME280;21380;52.194;20.520;2024-01-30T10:27:01;102100.34;;;14.59;54.02
35248;BME280;21380;52.194;20.520;2024-01-30T10:29:27;102099.63;;;14.62;54.42
35248;BME280;21380;52.194;20.520;2024-01-30T10:32:04;102101.41;;;14.63;53.85
35248;BME280;21380;52.194;20.520;2024-01-30T10:34:32;102100.59;;;14.64;54.14
35248;BME280;21380;52.194;20.520;2024-01-30T10:37:07;102098.09;;;14.66;54.25
35248;BME280;21380;52.194;20.520;2024-01-30T10:39:45;102089.44;;;14.65;54.02
35248;BME280;21380;52.194;20.520;2024-01-30T10:42:13;102092.19;;;14.68;54.05
35248;BME280;21380;52.194;20.520;2024-01-30T10:47:54;102093.06;;;11.90;48.75
35248;BME280;21380;52.194;20.520;2024-01-30T10:50:23;102106.59;;;10.91;51.61
35248;BME280;21380;52.194;20.520;2024-01-30T10:52:50;102091.59;;;10.98;52.25
35248;BME280;21380;52.194;20.520;2024-01-30T10:55:17;102087.72;;;11.87;51.72
35248;BME280;21380;52.194;20.520;2024-01-30T10:57:44;102075.38;;;12.40;52.32
35248;BME280;21380;52.194;20.520;2024-01-30T11:00:12;102070.03;;;12.81;52.65
35248;BME280;21380;52.194;20.520;2024-01-30T11:02:40;102068.41;;;13.13;51.70
35248;BME280;21380;52.194;20.520;2024-01-30T11:05:08;102067.06;;;13.37;51.34
35248;BME280;21380;52.194;20.520;2024-01-30T11:07:35;102062.59;;;13.49;51.53
35248;BME280;21380;52.194;20.520;2024-01-30T11:10:04;102067.91;;;13.67;51.11
35248;BME280;21380;52.194;20.520;2024-01-30T11:12:32;102066.59;;;13.75;51.22
35248;BME280;21380;52.194;20.520;2024-01-30T11:15:18;102060.75;;;13.79;51.38
35248;BME280;21380;52.194;20.520;2024-01-30T11:17:50;102063.13;;;13.91;51.01
35248;BME280;21380;52.194;20.520;2024-01-30T11:22:46;102054.13;;;14.01;51.74
35248;BME280;21380;52.194;20.520;2024-01-30T11:25:13;102057.94;;;14.08;51.79
35248;BME280;21380;52.194;20.520;2024-01-30T11:27:41;102051.28;;;14.13;51.92
35248;BME280;21380;52.194;20.520;2024-01-30T11:30:08;102051.53;;;14.18;51.62
35248;BME280;21380;52.194;20.520;2024-01-30T11:32:34;102052.50;;;14.20;51.56
35248;BME280;21380;52.194;20.520;2024-01-30T11:35:00;102041.28;;;14.21;51.93
35248;BME280;21380;52.194;20.520;2024-01-30T11:37:30;102039.84;;;14.26;52.24
35248;BME280;21380;52.194;20.520;2024-01-30T11:39:56;102037.31;;;14.27;51.88
35248;BME280;21380;52.194;20.520;2024-01-30T11:42:24;102036.56;;;14.30;51.99
35248;BME280;21380;52.194;20.520;2024-01-30T11:44:53;102036.72;;;14.33;52.31
35248;BME280;21380;52.194;20.520;2024-01-30T11:47:20;102035.19;;;14.37;52.29
35248;BME280;21380;52.194;20.520;2024-01-30T11:49:45;102029.09;;;14.36;52.18
35248;BME280;21380;52.194;20.520;2024-01-30T11:52:13;102028.44;;;14.40;52.48
35248;BME280;21380;52.194;20.520;2024-01-30T11:54:41;102019.75;;;14.40;52.25
35248;BME280;21380;52.194;20.520;2024-01-30T11:57:07;102019.84;;;14.41;52.89
35248;BME280;21380;52.194;20.520;2024-01-30T11:59:34;102027.75;;;14.44;52.67
35248;BME280;21380;52.194;20.520;2024-01-30T12:02:00;102018.28;;;14.45;52.64
35248;BME280;21380;52.194;20.520;2024-01-30T12:04:29;102029.88;;;14.52;52.84
35248;BME280;21380;52.194;20.520;2024-01-30T12:06:56;102018.53;;;14.50;53.03
35248;BME280;21380;52.194;20.520;2024-01-30T12:09:22;102019.47;;;14.52;52.73
35248;BME280;21380;52.194;20.520;2024-01-30T12:11:49;102003.81;;;14.50;53.35
35248;BME280;21380;52.194;20.520;2024-01-30T12:14:18;101996.59;;;14.44;53.27
35248;BME280;21380;52.194;20.520;2024-01-30T12:16:48;102011.00;;;14.56;53.30
35248;BME280;21380;52.194;20.520;2024-01-30T12:19:21;102011.13;;;14.57;53.11
35248;BME280;21380;52.194;20.520;2024-01-30T12:21:53;102013.72;;;14.57;53.17
35248;BME280;21380;52.194;20.520;2024-01-30T12:24:19;101999.75;;;14.55;52.98
35248;BME280;21380;52.194;20.520;2024-01-30T12:26:45;101998.03;;;14.56;53.22
35248;BME280;21380;52.194;20.520;2024-01-30T12:29:11;101999.19;;;14.61;53.30
35248;BME280;21380;52.194;20.520;2024-01-30T12:31:37;101996.41;;;14.58;53.15
35248;BME280;21380;52.194;20.520;2024-01-30T12:34:03;101997.38;;;14.60;53.40
35248;BME280;21380;52.194;20.520;2024-01-30T12:36:29;102006.22;;;14.64;53.52
35248;BME280;21380;52.194;20.520;2024-01-30T12:38:57;101998.34;;;14.62;53.48
35248;BME280;21380;52.194;20.520;2024-01-30T12:41:24;101991.28;;;14.59;53.41
35248;BME280;21380;52.194;20.520;2024-01-30T12:43:54;101999.50;;;14.67;53.74